1 Hotel West Hollywood East Helipad

US-3769 · 加利福尼亚州, 美国

罗盘
风向 的 直升机
风: 0 kt, 0 beaufort
0 1.000 2.000 3.000 4.000 5.000
BKN 2.600 ft
OVC 4.000 ft
METAR KCQT 010302Z AUTO 00000KT 10SM BKN026 OVC040 14/09 A2999 RMK AO2 T01440089

METAR 1 Hotel West Hollywood East Helipad - US-3769

1 Hotel West Hollywood East Helipad是,美国中的直升机场。 视场标高为500 ft。 该领域的国际民航组织标志是US-3769.

这份报告是针对2022年11月30日 19:02, 当地时间在LOS ANGELES USC CAMPUS进行的。

机场观察

可变方向的风很小或没有风。

可见度为10 mi。

有碎云在2.600 ft的高度 和 乌云密布在4.000 ft的高度。 破损或更高的上限为2.600 ft。

温度和风寒是14 °C。 露点为9 °C,相对湿度为72%。 海平面上的气压为29,99 inHg (QNH)。

白天

今天,太阳从06:41升起,在16:44降落。 这适用于1 Hotel West Hollywood East Helipad,世界夏令时可能有所不同。 当地时间与世界标准时间之间的时差为-8 小时。 当前,没有夏令时有效。

公司介绍

我们没有关于这个机场的公司信息。

体会

到Vliegles.nl去找飞行课程,跳伞和其他飞行体验。 浏览页面,了解1 Hotel West Hollywood East Helipad附近所有可用的活动。 你也可以使用搜索功能来寻找你所在地附近的特定飞行课程、跳伞或其他飞行体验。

乌云

2.600 ft BKN 碎云
4.000 ft OVC 乌云密布

温度 & 天气

温度 14,4 °C
露点 8,9 °C
相对湿度 72%
Kp-index 0 (0-9)

评论

AO2自动气象站,可确定降水类型
T01440089温度为14,4 °C (57,9 °F),露点为8,9 °C (48,0 °F)

白天

日出
06:40 (11:24)
中午
11:42
日落
16:43

小工具

你想在你的网站上有一个关于1 Hotel West Hollywood East Helipad的当前航空天气(METAR)的小部件吗?

显示HTML代码

我们和第三方通过cookies跟踪您在我们网站上的互联网行为。如果你继续,我们认为你同意我们的饼干政策